Time;durP1;ratioP1;P1;durP2;ratioP2;P2;SDS_P1;SDS_P2;PMS_P1;PMS_P2;Temp;Humidity;BMP_temperature;BMP_pressure;BME280_temperature;BME280_humidity;BME280_pressure;Samples;Min_cycle;Max_cycle;Signal;HPM_P1;HPM_P2
2022/03/22 00:00:20;;;;;;;0.30;0.30;;;5.40;61.80;;;;;;5053689;28;20558;-64
2022/03/22 00:02:46;;;;;;;0.30;0.30;;;5.50;62.10;;;;;;5055297;28;20177;-64
2022/03/22 00:05:12;;;;;;;0.70;0.70;;;5.60;62.70;;;;;;5055120;28;20631;-65
2022/03/22 00:07:37;;;;;;;0.30;0.30;;;5.60;62.80;;;;;;5055029;28;20209;-65
2022/03/22 00:10:04;;;;;;;0.30;0.30;;;5.60;62.60;;;;;;5054868;28;20975;-65
2022/03/22 00:12:30;;;;;;;0.30;0.30;;;5.50;62.60;;;;;;5055041;28;20170;-64
2022/03/22 00:14:55;;;;;;;0.40;0.40;;;5.60;62.60;;;;;;5055033;28;20642;-64
2022/03/22 00:17:21;;;;;;;0.30;0.30;;;5.60;62.90;;;;;;5055206;28;20194;-65
2022/03/22 00:19:47;;;;;;;0.30;0.30;;;5.50;61.70;;;;;;5055277;28;20405;-65
2022/03/22 00:22:14;;;;;;;0.30;0.30;;;5.60;62.00;;;;;;5054958;28;20539;-65
2022/03/22 00:24:41;;;;;;;0.40;0.40;;;5.40;62.80;;;;;;5054296;28;20175;-64
2022/03/22 00:27:07;;;;;;;0.30;0.30;;;5.20;63.30;;;;;;5052727;28;20194;-64
2022/03/22 00:29:34;;;;;;;0.30;0.30;;;5.20;63.80;;;;;;5053982;28;20196;-65
2022/03/22 00:31:59;;;;;;;0.60;0.60;;;5.20;64.10;;;;;;5054314;28;20197;-65
2022/03/22 00:34:25;;;;;;;0.73;0.73;;;5.30;64.00;;;;;;5054903;28;20173;-65
2022/03/22 00:36:51;;;;;;;0.30;0.30;;;5.30;64.30;;;;;;5054379;28;20947;-65
2022/03/22 00:39:18;;;;;;;0.60;0.60;;;5.40;63.70;;;;;;5054504;28;20235;-64
2022/03/22 00:41:44;;;;;;;0.32;0.32;;;5.30;63.60;;;;;;5054424;28;20533;-64
2022/03/22 00:44:10;;;;;;;1.67;0.95;;;5.30;63.50;;;;;;5054376;28;20517;-64
2022/03/22 00:46:36;;;;;;;0.40;0.40;;;5.30;63.30;;;;;;5054353;28;20193;-64
2022/03/22 00:49:03;;;;;;;0.40;0.40;;;5.30;63.30;;;;;;5054351;28;20258;-64
2022/03/22 00:51:29;;;;;;;0.30;0.30;;;5.30;64.00;;;;;;5054083;28;20205;-64
2022/03/22 00:53:55;;;;;;;0.40;0.40;;;5.20;64.10;;;;;;5052982;28;20627;-64
2022/03/22 00:56:24;;;;;;;0.30;0.30;;;5.10;64.20;;;;;;5054597;28;20273;-64
2022/03/22 01:00:01;;;;;;;0.30;0.30;;;5.20;64.60;;;;;;5053974;28;20461;-65
2022/03/22 01:01:36;;;;;;;0.32;0.32;;;5.10;64.20;;;;;;5053599;28;20193;-64
2022/03/22 01:04:04;;;;;;;0.40;0.40;;;5.20;65.00;;;;;;5053979;28;20177;-65
2022/03/22 01:06:30;;;;;;;0.30;0.30;;;5.20;65.10;;;;;;5053854;28;20248;-64
2022/03/22 01:08:56;;;;;;;0.40;0.40;;;5.10;65.20;;;;;;5053873;28;20169;-64
2022/03/22 01:11:21;;;;;;;0.30;0.30;;;5.10;65.80;;;;;;5053542;28;20285;-65
2022/03/22 01:13:47;;;;;;;0.30;0.30;;;5.00;65.80;;;;;;5053778;28;20185;-65
2022/03/22 01:16:13;;;;;;;0.40;0.40;;;5.00;65.90;;;;;;5053869;28;20215;-64
2022/03/22 01:18:38;;;;;;;0.40;0.40;;;4.90;66.00;;;;;;5053748;28;20269;-65
2022/03/22 01:21:04;;;;;;;0.30;0.30;;;4.80;66.40;;;;;;5053620;28;20169;-64
2022/03/22 01:23:30;;;;;;;0.40;0.40;;;4.90;66.20;;;;;;5054008;28;20176;-64
2022/03/22 01:25:55;;;;;;;0.30;0.30;;;4.90;66.30;;;;;;5053645;28;20200;-64
2022/03/22 01:28:21;;;;;;;0.40;0.40;;;4.90;66.60;;;;;;5053430;28;20167;-64
2022/03/22 01:30:47;;;;;;;1.00;1.00;;;4.80;65.70;;;;;;5053290;28;20200;-65
2022/03/22 01:33:12;;;;;;;0.40;0.40;;;4.80;65.70;;;;;;5053503;28;20174;-64
2022/03/22 01:35:39;;;;;;;0.30;0.30;;;4.80;66.20;;;;;;5053286;28;20185;-65
2022/03/22 01:38:05;;;;;;;1.77;1.67;;;4.70;66.20;;;;;;5053110;28;20168;-65
2022/03/22 01:40:31;;;;;;;0.30;0.30;;;4.70;65.00;;;;;;5053276;28;20197;-65
2022/03/22 01:42:58;;;;;;;0.35;0.35;;;4.70;65.50;;;;;;5053322;28;20211;-64
2022/03/22 01:45:23;;;;;;;0.40;0.40;;;4.70;65.10;;;;;;5053251;28;20178;-64
2022/03/22 01:47:50;;;;;;;0.30;0.30;;;4.80;65.20;;;;;;5053392;28;20167;-64
2022/03/22 01:50:19;;;;;;;0.30;0.30;;;4.80;65.00;;;;;;5053288;28;20697;-64
2022/03/22 01:52:45;;;;;;;0.38;0.38;;;4.90;64.80;;;;;;5053378;28;20177;-65
2022/03/22 01:55:15;;;;;;;0.40;0.40;;;4.90;65.50;;;;;;5053370;28;20207;-64
2022/03/22 01:57:41;;;;;;;0.30;0.30;;;4.90;64.40;;;;;;5053082;28;20188;-64
2022/03/22 02:00:16;;;;;;;0.40;0.40;;;4.90;64.10;;;;;;5053076;28;20191;-65
2022/03/22 02:08:16;;;;;;;0.30;0.30;;;4.90;63.70;;;;;;5053540;28;20665;-64
2022/03/22 02:10:42;;;;;;;0.30;0.30;;;4.90;64.20;;;;;;5052852;28;20690;-64
2022/03/22 02:13:07;;;;;;;0.40;0.40;;;4.90;64.50;;;;;;5053143;28;20172;-64
2022/03/22 02:15:33;;;;;;;0.37;0.37;;;4.90;63.70;;;;;;5051667;28;20909;-65
2022/03/22 02:18:00;;;;;;;0.30;0.30;;;4.90;63.60;;;;;;5052916;28;20418;-64
2022/03/22 02:20:27;;;;;;;0.30;0.30;;;4.80;63.50;;;;;;5053003;28;20283;-65
2022/03/22 02:23:18;;;;;;;0.80;0.80;;;4.80;63.70;;;;;;5052973;28;20537;-64
2022/03/22 02:25:44;;;;;;;0.30;0.30;;;4.80;64.20;;;;;;5052975;28;20204;-64
2022/03/22 02:28:11;;;;;;;0.30;0.30;;;4.80;64.60;;;;;;5052880;28;20299;-65
2022/03/22 02:30:37;;;;;;;0.40;0.40;;;4.80;64.50;;;;;;5052669;28;20194;-65
2022/03/22 02:33:03;;;;;;;0.30;0.30;;;4.70;64.20;;;;;;5052783;28;20197;-64
2022/03/22 02:35:30;;;;;;;0.30;0.30;;;4.70;63.90;;;;;;5053112;28;20196;-65
2022/03/22 02:37:56;;;;;;;0.30;0.30;;;4.60;64.60;;;;;;5053139;28;20175;-64
2022/03/22 02:40:22;;;;;;;1.70;1.70;;;4.50;64.70;;;;;;5052601;28;20228;-64
2022/03/22 02:42:53;;;;;;;0.30;0.30;;;4.50;65.10;;;;;;5053148;28;20198;-64
2022/03/22 02:45:23;;;;;;;0.30;0.30;;;4.50;66.00;;;;;;5052897;28;20523;-64
2022/03/22 02:47:48;;;;;;;0.60;0.60;;;4.40;66.20;;;;;;5052671;28;20178;-65
2022/03/22 02:50:14;;;;;;;0.50;0.50;;;4.30;66.10;;;;;;5053671;28;20174;-65
2022/03/22 02:52:41;;;;;;;0.40;0.40;;;4.40;66.50;;;;;;5056552;28;20198;-65
2022/03/22 02:55:09;;;;;;;0.30;0.30;;;4.50;66.40;;;;;;5056562;28;20405;-64
2022/03/22 02:57:37;;;;;;;0.30;0.30;;;4.50;66.10;;;;;;5056411;28;20279;-64
2022/03/22 03:00:06;;;;;;;0.30;0.30;;;4.60;66.20;;;;;;5055896;28;20238;-64
2022/03/22 03:02:32;;;;;;;0.30;0.30;;;4.60;66.10;;;;;;5056632;28;20226;-64
2022/03/22 03:04:57;;;;;;;0.30;0.30;;;4.60;66.00;;;;;;5056505;28;20168;-64
2022/03/22 03:07:23;;;;;;;0.40;0.40;;;4.60;65.50;;;;;;5056056;28;20774;-64
2022/03/22 03:09:48;;;;;;;0.30;0.30;;;4.60;65.10;;;;;;5056267;28;20648;-64
2022/03/22 03:12:15;;;;;;;0.40;0.40;;;4.60;64.90;;;;;;5055825;28;20260;-65
2022/03/22 03:14:40;;;;;;;0.30;0.30;;;4.60;65.70;;;;;;5055966;28;20533;-65
2022/03/22 03:17:09;;;;;;;0.30;0.30;;;4.60;65.50;;;;;;5055888;28;20187;-64
2022/03/22 03:19:34;;;;;;;0.30;0.30;;;4.60;65.20;;;;;;5055928;28;20163;-64
2022/03/22 03:22:03;;;;;;;0.30;0.30;;;4.50;66.00;;;;;;5055685;28;20226;-64
2022/03/22 03:24:30;;;;;;;0.30;0.30;;;4.50;66.10;;;;;;5055864;28;20204;-64
2022/03/22 03:26:56;;;;;;;0.30;0.30;;;4.30;66.50;;;;;;5055658;28;20215;-64
2022/03/22 03:29:22;;;;;;;0.30;0.30;;;4.30;67.40;;;;;;5055880;28;20540;-64
2022/03/22 03:31:48;;;;;;;0.30;0.30;;;4.30;67.70;;;;;;5055632;28;20282;-64
2022/03/22 03:34:14;;;;;;;0.40;0.40;;;4.30;69.30;;;;;;5054391;28;20695;-64
2022/03/22 03:36:39;;;;;;;0.30;0.30;;;4.20;69.20;;;;;;5055467;28;20195;-64
2022/03/22 03:39:05;;;;;;;0.30;0.30;;;4.10;69.50;;;;;;5055425;28;20413;-64
2022/03/22 03:47:11;;;;;;;0.40;0.40;;;4.20;70.80;;;;;;5055424;28;20205;-64
2022/03/22 03:49:44;;;;;;;0.30;0.30;;;4.20;70.40;;;;;;5055222;28;20168;-65
2022/03/22 03:52:26;;;;;;;0.30;0.30;;;4.20;70.20;;;;;;5055028;28;20653;-64
2022/03/22 03:54:53;;;;;;;1.38;0.77;;;4.20;70.00;;;;;;5055456;28;20182;-65
2022/03/22 03:57:19;;;;;;;0.98;0.98;;;4.10;70.00;;;;;;5055106;28;20188;-65
2022/03/22 03:59:45;;;;;;;0.38;0.38;;;4.10;70.40;;;;;;5055125;28;20269;-65
2022/03/22 04:02:11;;;;;;;0.30;0.30;;;4.20;70.20;;;;;;5054938;28;20261;-64
2022/03/22 04:04:38;;;;;;;0.83;0.80;;;4.00;70.10;;;;;;5054926;28;20417;-64
2022/03/22 04:07:06;;;;;;;0.30;0.30;;;4.00;70.20;;;;;;5054975;28;20525;-64
2022/03/22 04:09:33;;;;;;;0.30;0.30;;;4.00;71.10;;;;;;5054984;28;20233;-64
2022/03/22 04:11:59;;;;;;;0.40;0.40;;;4.00;71.30;;;;;;5054705;28;20277;-65
2022/03/22 04:14:25;;;;;;;0.40;0.40;;;4.00;71.10;;;;;;5054857;28;20676;-65
2022/03/22 04:16:51;;;;;;;0.30;0.30;;;4.00;71.30;;;;;;5054874;28;20597;-64
2022/03/22 04:19:17;;;;;;;0.50;0.50;;;4.00;71.70;;;;;;5054598;28;20398;-64
2022/03/22 04:21:42;;;;;;;0.40;0.40;;;3.80;72.00;;;;;;5054525;28;20890;-64
2022/03/22 04:24:11;;;;;;;0.40;0.40;;;3.80;72.70;;;;;;5054685;28;20414;-64
2022/03/22 04:26:39;;;;;;;0.30;0.30;;;3.90;72.60;;;;;;5054378;28;20187;-64
2022/03/22 04:34:35;;;;;;;0.30;0.30;;;4.00;72.70;;;;;;5054584;28;20182;-65
2022/03/22 04:37:01;;;;;;;0.40;0.40;;;3.90;72.60;;;;;;5054361;28;20198;-64
2022/03/22 04:39:29;;;;;;;0.30;0.30;;;3.90;72.10;;;;;;5054303;28;20175;-65
2022/03/22 04:41:58;;;;;;;0.40;0.40;;;4.00;71.90;;;;;;5054020;28;20558;-64
2022/03/22 04:44:27;;;;;;;0.60;0.60;;;4.00;71.80;;;;;;5054311;28;20543;-64
2022/03/22 04:46:53;;;;;;;0.38;0.38;;;4.00;71.60;;;;;;5054190;28;20191;-64
2022/03/22 04:49:19;;;;;;;0.40;0.40;;;3.80;72.10;;;;;;5054091;28;20204;-64
2022/03/22 04:57:14;;;;;;;0.30;0.30;;;3.60;75.10;;;;;;5054170;28;20269;-64
2022/03/22 04:59:39;;;;;;;0.40;0.40;;;3.60;75.40;;;;;;5053892;28;20177;-64
2022/03/22 05:02:05;;;;;;;0.40;0.40;;;3.60;75.90;;;;;;5053785;28;20414;-64
2022/03/22 05:04:31;;;;;;;0.30;0.30;;;3.60;76.10;;;;;;5053942;28;20183;-64
2022/03/22 05:06:56;;;;;;;0.30;0.30;;;3.70;75.90;;;;;;5053631;28;20226;-64
2022/03/22 05:09:25;;;;;;;0.30;0.30;;;3.70;75.60;;;;;;5053667;28;20177;-64
2022/03/22 05:11:51;;;;;;;0.30;0.30;;;3.80;75.30;;;;;;5053534;28;20195;-64
2022/03/22 05:14:16;;;;;;;0.35;0.35;;;3.80;75.20;;;;;;5053165;28;20255;-64
2022/03/22 05:16:45;;;;;;;0.30;0.30;;;3.70;74.60;;;;;;5053591;28;20270;-64
2022/03/22 05:19:13;;;;;;;0.30;0.30;;;3.60;74.80;;;;;;5053490;28;20173;-64
2022/03/22 05:21:39;;;;;;;0.30;0.30;;;3.60;75.50;;;;;;5052345;28;20621;-64
2022/03/22 05:24:06;;;;;;;0.30;0.30;;;3.60;75.70;;;;;;5053488;28;20180;-64
2022/03/22 05:26:31;;;;;;;0.30;0.30;;;3.50;76.70;;;;;;5053425;28;20199;-65
2022/03/22 05:28:57;;;;;;;0.40;0.40;;;3.60;77.20;;;;;;5053453;28;20226;-64
2022/03/22 05:31:23;;;;;;;1.17;1.17;;;3.50;76.50;;;;;;5053151;28;20195;-64
2022/03/22 05:33:49;;;;;;;0.30;0.30;;;3.60;76.50;;;;;;5053397;28;20186;-64
2022/03/22 05:36:16;;;;;;;0.40;0.40;;;3.60;76.30;;;;;;5053418;28;20196;-64
2022/03/22 05:38:42;;;;;;;0.38;0.38;;;3.60;76.80;;;;;;5053149;28;20597;-64
2022/03/22 05:41:08;;;;;;;0.30;0.30;;;3.60;77.30;;;;;;5053114;28;20182;-64
2022/03/22 05:43:35;;;;;;;0.63;0.63;;;3.50;77.20;;;;;;5053631;28;20410;-64
2022/03/22 05:46:02;;;;;;;0.30;0.30;;;3.50;77.70;;;;;;5053232;28;20623;-64
2022/03/22 05:48:30;;;;;;;0.30;0.30;;;3.60;78.00;;;;;;5052984;28;20175;-65
2022/03/22 05:50:56;;;;;;;1.90;1.80;;;3.70;77.60;;;;;;5052839;28;20229;-65
2022/03/22 05:53:22;;;;;;;0.40;0.40;;;3.80;77.50;;;;;;5053196;28;20166;-64
2022/03/22 05:55:48;;;;;;;0.30;0.30;;;3.90;76.70;;;;;;5052947;28;20187;-64
2022/03/22 05:58:14;;;;;;;4.10;2.80;;;4.00;75.50;;;;;;5052983;28;20175;-65
2022/03/22 06:00:40;;;;;;;0.30;0.30;;;4.10;75.10;;;;;;5052842;28;20191;-64
2022/03/22 06:03:06;;;;;;;0.40;0.40;;;4.10;74.90;;;;;;5053092;28;20406;-64
2022/03/22 06:05:32;;;;;;;0.40;0.40;;;4.00;75.10;;;;;;5052903;28;20540;-64
2022/03/22 06:07:59;;;;;;;0.40;0.40;;;4.10;76.30;;;;;;5052892;28;20937;-65
2022/03/22 06:10:25;;;;;;;0.30;0.30;;;4.20;74.90;;;;;;5052884;28;20416;-65
2022/03/22 06:12:53;;;;;;;0.30;0.30;;;4.30;74.40;;;;;;5052996;28;20179;-64
2022/03/22 06:15:24;;;;;;;0.40;0.40;;;4.30;75.30;;;;;;5052964;28;20587;-64
2022/03/22 06:17:58;;;;;;;0.63;0.63;;;4.30;75.80;;;;;;5052884;28;20159;-64
2022/03/22 06:20:31;;;;;;;0.30;0.30;;;4.30;74.60;;;;;;5052994;28;20177;-64
2022/03/22 06:22:58;;;;;;;0.30;0.30;;;4.30;75.20;;;;;;5052805;28;20225;-64
2022/03/22 06:25:24;;;;;;;1.63;1.52;;;4.30;74.90;;;;;;5054490;28;20170;-64
2022/03/22 06:27:51;;;;;;;0.40;0.40;;;4.30;74.60;;;;;;5056686;28;20181;-64
2022/03/22 06:30:18;;;;;;;0.40;0.40;;;4.50;74.40;;;;;;5056896;28;20217;-65
2022/03/22 06:32:56;;;;;;;0.82;0.82;;;4.50;73.90;;;;;;5056661;28;20268;-64
2022/03/22 06:35:32;;;;;;;0.30;0.30;;;4.70;74.40;;;;;;5056608;28;20163;-64
2022/03/22 06:37:59;;;;;;;0.40;0.40;;;4.80;73.10;;;;;;5056599;28;20252;-64
2022/03/22 06:40:28;;;;;;;0.30;0.30;;;4.60;71.60;;;;;;5056449;28;20166;-65
2022/03/22 06:42:55;;;;;;;0.30;0.30;;;4.70;70.80;;;;;;5056456;28;20176;-64
2022/03/22 06:45:21;;;;;;;0.30;0.30;;;4.80;71.40;;;;;;5056359;28;20182;-64
2022/03/22 06:47:48;;;;;;;0.30;0.30;;;5.10;71.10;;;;;;5056249;28;20197;-65
2022/03/22 06:50:15;;;;;;;0.30;0.30;;;5.40;73.10;;;;;;5055724;28;20577;-65
2022/03/22 06:52:41;;;;;;;0.30;0.30;;;5.70;71.90;;;;;;5055054;28;20228;-65
2022/03/22 06:55:08;;;;;;;0.30;0.30;;;6.30;70.20;;;;;;5054386;28;20171;-65
2022/03/22 06:57:35;;;;;;;0.30;0.30;;;7.20;66.80;;;;;;5055526;28;20216;-65
2022/03/22 07:00:04;;;;;;;0.40;0.40;;;8.80;61.00;;;;;;5055902;28;20704;-65
2022/03/22 07:02:31;;;;;;;0.30;0.30;;;10.50;55.40;;;;;;5056527;28;20254;-64
2022/03/22 07:04:56;;;;;;;1.95;1.52;;;11.90;52.00;;;;;;5056051;28;20177;-65
2022/03/22 07:07:23;;;;;;;0.40;0.40;;;13.00;48.60;;;;;;5056236;28;20193;-64
2022/03/22 07:09:48;;;;;;;0.30;0.30;;;13.80;45.80;;;;;;5056012;28;20235;-65
2022/03/22 07:12:14;;;;;;;3.33;1.93;;;14.40;44.40;;;;;;5055774;28;20281;-65
2022/03/22 07:14:43;;;;;;;0.30;0.30;;;15.30;41.80;;;;;;5056076;28;20630;-65
2022/03/22 07:17:09;;;;;;;0.40;0.40;;;16.30;40.00;;;;;;5055928;28;20190;-65
2022/03/22 07:19:35;;;;;;;0.40;0.40;;;16.80;38.10;;;;;;5056006;28;20747;-65
2022/03/22 07:22:01;;;;;;;0.50;0.50;;;17.20;38.50;;;;;;5055914;28;20861;-64
2022/03/22 07:24:27;;;;;;;0.53;0.53;;;17.70;38.40;;;;;;5056031;28;20815;-65
2022/03/22 07:26:53;;;;;;;0.87;0.87;;;18.30;37.00;;;;;;5055965;28;20430;-66
2022/03/22 07:29:18;;;;;;;2.63;1.00;;;19.20;37.30;;;;;;5054634;28;20696;-74
2022/03/22 07:31:44;;;;;;;3.20;1.43;;;20.00;36.20;;;;;;5054656;28;20460;-72
2022/03/22 07:34:15;;;;;;;0.60;0.60;;;20.60;37.30;;;;;;5054707;28;20170;-73
2022/03/22 07:36:41;;;;;;;0.40;0.40;;;20.30;35.30;;;;;;5054653;28;20276;-67
2022/03/22 07:39:07;;;;;;;0.40;0.40;;;19.60;35.80;;;;;;5054310;28;20397;-68
2022/03/22 07:41:34;;;;;;;0.90;0.90;;;19.00;36.30;;;;;;5055818;28;20416;-70
2022/03/22 07:44:01;;;;;;;0.30;0.30;;;17.60;37.30;;;;;;5056068;28;20415;-70
2022/03/22 07:46:27;;;;;;;0.70;0.70;;;15.80;39.60;;;;;;5055747;28;20440;-70
2022/03/22 07:48:53;;;;;;;0.40;0.40;;;15.10;38.60;;;;;;5055379;28;20426;-65
2022/03/22 07:54:04;;;;;;;0.30;0.30;;;16.60;38.40;;;;;;5054001;28;20640;-65
2022/03/22 07:56:32;;;;;;;0.50;0.50;;;18.30;36.00;;;;;;5053072;28;20425;-66
2022/03/22 07:58:58;;;;;;;3.60;2.63;;;19.40;33.60;;;;;;5054748;28;20942;-65
2022/03/22 08:01:24;;;;;;;0.30;0.30;;;20.30;34.00;;;;;;5052922;28;20510;-66
2022/03/22 08:03:50;;;;;;;4.83;4.43;;;21.10;32.40;;;;;;5054244;28;20772;-65
2022/03/22 08:06:16;;;;;;;0.57;0.57;;;21.80;31.30;;;;;;5054606;28;20425;-66
2022/03/22 08:08:44;;;;;;;0.90;0.90;;;22.30;29.60;;;;;;5052781;28;20794;-66
2022/03/22 08:11:10;;;;;;;2.17;2.07;;;22.70;29.40;;;;;;5054185;28;20726;-66
2022/03/22 08:13:37;;;;;;;1.53;1.43;;;23.10;29.10;;;;;;5054875;28;20406;-66
2022/03/22 08:16:06;;;;;;;0.40;0.40;;;23.50;28.80;;;;;;5052193;28;20427;-66
2022/03/22 08:18:32;;;;;;;0.73;0.73;;;23.80;28.90;;;;;;5055558;28;20395;-66
2022/03/22 08:20:58;;;;;;;0.40;0.40;;;24.20;28.60;;;;;;5055136;28;20412;-70
2022/03/22 08:23:24;;;;;;;3.40;1.27;;;24.50;27.90;;;;;;5052776;28;20890;-73
2022/03/22 08:25:56;;;;;;;2.83;0.60;;;24.60;27.40;;;;;;5055162;28;20647;-66
2022/03/22 08:28:21;;;;;;;0.50;0.50;;;24.90;27.90;;;;;;5053034;28;20425;-66
2022/03/22 08:30:47;;;;;;;0.50;0.50;;;25.00;27.60;;;;;;5053041;28;20499;-69
2022/03/22 08:33:12;;;;;;;0.93;0.93;;;25.00;27.30;;;;;;5054695;28;20688;-66
2022/03/22 08:35:46;;;;;;;0.77;0.77;;;25.50;27.20;;;;;;5054812;28;20561;-68
2022/03/22 08:38:14;;;;;;;8.33;1.83;;;25.90;27.10;;;;;;5052290;28;20167;-66
2022/03/22 08:40:40;;;;;;;0.40;0.40;;;26.60;26.20;;;;;;5054421;28;20427;-66
2022/03/22 08:43:08;;;;;;;1.40;1.10;;;26.90;26.20;;;;;;5055083;28;20404;-67
2022/03/22 08:45:35;;;;;;;0.40;0.40;;;27.20;26.10;;;;;;5052166;28;20427;-66
2022/03/22 08:48:02;;;;;;;1.27;1.17;;;27.30;25.60;;;;;;5053794;28;20396;-70
2022/03/22 08:50:28;;;;;;;0.30;0.30;;;26.40;27.30;;;;;;5054681;28;20419;-67
2022/03/22 08:52:56;;;;;;;0.97;0.97;;;23.50;29.70;;;;;;5054961;28;20433;-70
2022/03/22 08:55:23;;;;;;;0.50;0.50;;;23.50;28.60;;;;;;5054849;28;20412;-70
2022/03/22 08:57:49;;;;;;;1.17;1.00;;;22.00;28.90;;;;;;5054762;28;20410;-68
2022/03/22 09:00:18;;;;;;;0.80;0.80;;;20.80;29.40;;;;;;5052324;28;20429;-69
2022/03/22 09:02:46;;;;;;;0.30;0.30;;;20.00;30.50;;;;;;5054379;28;20400;-71
2022/03/22 09:07:58;;;;;;;0.30;0.30;;;19.10;32.00;;;;;;5054818;28;20807;-68
2022/03/22 09:10:25;;;;;;;0.30;0.30;;;18.80;32.20;;;;;;5051188;28;20401;-68
2022/03/22 09:12:51;;;;;;;0.40;0.40;;;18.60;32.20;;;;;;5053021;28;20401;-65
2022/03/22 09:15:19;;;;;;;0.30;0.30;;;18.40;32.70;;;;;;5052844;28;20434;-63
2022/03/22 09:17:45;;;;;;;1.80;1.70;;;18.20;31.80;;;;;;5052064;28;20427;-70
2022/03/22 09:20:14;;;;;;;0.40;0.40;;;17.60;32.10;;;;;;5051899;28;20895;-64
2022/03/22 09:22:44;;;;;;;2.20;2.10;;;17.70;32.00;;;;;;5053361;28;20886;-63
2022/03/22 09:25:11;;;;;;;0.90;0.90;;;18.20;31.30;;;;;;5051616;28;20486;-64
2022/03/22 09:27:41;;;;;;;0.30;0.30;;;18.80;31.00;;;;;;5052886;28;20432;-63
2022/03/22 09:30:08;;;;;;;1.17;0.80;;;20.10;30.10;;;;;;5051815;28;20418;-64
2022/03/22 09:32:38;;;;;;;0.50;0.50;;;20.80;29.00;;;;;;5052325;28;20449;-64
2022/03/22 09:35:10;;;;;;;0.37;0.37;;;19.80;29.80;;;;;;5053536;28;20415;-64
2022/03/22 09:37:40;;;;;;;0.53;0.53;;;19.90;29.80;;;;;;5051494;28;20443;-64
2022/03/22 09:40:08;;;;;;;0.70;0.70;;;21.00;29.40;;;;;;5053437;28;20771;-64
2022/03/22 09:42:37;;;;;;;0.50;0.50;;;21.20;28.80;;;;;;5053117;28;20408;-64
2022/03/22 09:45:03;;;;;;;0.97;0.97;;;20.60;28.90;;;;;;5053375;28;20468;-64
2022/03/22 09:47:29;;;;;;;0.30;0.30;;;20.50;29.90;;;;;;5053318;28;20788;-64
2022/03/22 09:49:58;;;;;;;0.53;0.53;;;20.70;29.10;;;;;;5053020;28;20428;-63
2022/03/22 09:52:24;;;;;;;1.87;1.73;;;20.70;29.50;;;;;;5053488;28;20452;-64
2022/03/22 09:54:50;;;;;;;0.30;0.30;;;21.70;29.30;;;;;;5053304;28;20409;-64
2022/03/22 09:57:16;;;;;;;7.77;1.80;;;22.80;28.50;;;;;;5053227;28;20198;-64
2022/03/22 09:59:42;;;;;;;0.30;0.30;;;22.40;28.40;;;;;;5052984;28;20428;-63
2022/03/22 10:02:09;;;;;;;0.50;0.50;;;22.30;28.30;;;;;;5053249;28;20504;-65
2022/03/22 10:04:45;;;;;;;0.30;0.30;;;22.00;29.00;;;;;;5053156;28;21027;-64
2022/03/22 10:07:21;;;;;;;0.40;0.40;;;23.10;28.20;;;;;;5053318;28;20459;-64
2022/03/22 10:09:55;;;;;;;0.30;0.30;;;24.10;27.50;;;;;;5053410;28;20403;-65
2022/03/22 10:12:37;;;;;;;0.50;0.50;;;24.30;27.30;;;;;;5053115;28;20450;-65
2022/03/22 10:15:14;;;;;;;0.30;0.30;;;24.10;27.40;;;;;;5051254;28;20434;-65
2022/03/22 10:17:40;;;;;;;0.40;0.40;;;23.70;27.40;;;;;;5052427;28;20426;-64
2022/03/22 10:20:08;;;;;;;0.37;0.37;;;22.90;27.80;;;;;;5052874;28;20900;-64
2022/03/22 10:22:37;;;;;;;2.53;0.97;;;22.30;28.10;;;;;;5051019;28;20414;-64
2022/03/22 10:25:05;;;;;;;1.73;1.63;;;22.60;28.60;;;;;;5053341;28;20432;-65
2022/03/22 10:27:37;;;;;;;0.70;0.70;;;22.70;28.10;;;;;;5052377;28;20432;-64
2022/03/22 10:30:06;;;;;;;0.57;0.57;;;21.20;28.70;;;;;;5051615;28;20413;-64
2022/03/22 10:32:44;;;;;;;1.83;1.03;;;20.80;29.70;;;;;;5052726;28;20454;-64
2022/03/22 10:35:17;;;;;;;4.47;3.60;;;21.90;29.10;;;;;;5051950;28;20831;-64
2022/03/22 10:37:45;;;;;;;0.97;0.97;;;22.30;28.60;;;;;;5051740;28;20446;-64
2022/03/22 10:40:21;;;;;;;1.13;1.13;;;22.30;28.70;;;;;;5052941;28;20390;-64
2022/03/22 10:42:48;;;;;;;2.00;1.27;;;21.90;29.00;;;;;;5051118;28;20905;-64
2022/03/22 10:45:13;;;;;;;0.50;0.50;;;22.20;29.50;;;;;;5052879;28;20410;-64
2022/03/22 10:47:39;;;;;;;1.10;1.07;;;22.60;29.00;;;;;;5052811;28;20440;-64
2022/03/22 10:50:06;;;;;;;0.40;0.40;;;23.10;28.70;;;;;;5052795;28;20176;-64
2022/03/22 10:52:33;;;;;;;1.70;1.17;;;23.10;28.40;;;;;;5052901;28;20623;-64
2022/03/22 10:54:59;;;;;;;0.30;0.30;;;21.80;29.30;;;;;;5053056;28;20407;-64
2022/03/22 10:57:32;;;;;;;1.13;0.60;;;21.70;29.60;;;;;;5052719;28;20430;-63
2022/03/22 11:00:04;;;;;;;0.40;0.40;;;21.60;29.30;;;;;;5052599;28;21132;-64
2022/03/22 11:02:37;;;;;;;0.30;0.30;;;21.10;29.70;;;;;;5052969;28;20460;-63
2022/03/22 11:05:04;;;;;;;0.50;0.50;;;19.50;30.70;;;;;;5052957;28;20408;-64
2022/03/22 11:07:35;;;;;;;0.30;0.30;;;19.40;31.80;;;;;;5052627;28;20429;-65
2022/03/22 11:10:01;;;;;;;0.30;0.30;;;19.10;32.00;;;;;;5052443;28;20789;-64
2022/03/22 11:12:28;;;;;;;0.40;0.40;;;18.80;31.90;;;;;;5055732;28;20453;-62
2022/03/22 11:14:58;;;;;;;0.40;0.40;;;18.30;33.00;;;;;;5056369;28;20920;-65
2022/03/22 11:17:27;;;;;;;0.50;0.50;;;18.40;33.80;;;;;;5056210;28;20551;-64
2022/03/22 11:19:55;;;;;;;0.50;0.50;;;18.10;33.30;;;;;;5055998;28;20401;-64
2022/03/22 11:22:22;;;;;;;0.30;0.30;;;17.90;33.40;;;;;;5056067;28;20412;-65
2022/03/22 11:24:48;;;;;;;0.70;0.60;;;17.30;33.90;;;;;;5056168;28;20404;-63
2022/03/22 11:27:14;;;;;;;0.40;0.40;;;16.90;34.70;;;;;;5055908;28;20434;-63
2022/03/22 11:29:41;;;;;;;0.30;0.30;;;16.70;35.40;;;;;;5056084;28;20227;-64
2022/03/22 11:34:57;;;;;;;1.20;1.20;;;16.50;35.40;;;;;;5056160;28;20408;-63
2022/03/22 11:37:29;;;;;;;2.93;2.83;;;16.20;36.50;;;;;;5055714;28;20439;-64
2022/03/22 11:42:55;;;;;;;0.30;0.30;;;15.60;36.40;;;;;;5064675;28;20420;-63
2022/03/22 11:45:21;;;;;;;0.97;0.97;;;15.60;36.90;;;;;;5055897;28;20419;-63
2022/03/22 11:47:53;;;;;;;4.83;1.40;;;15.60;37.10;;;;;;5055897;28;20769;-64
2022/03/22 11:50:21;;;;;;;0.30;0.30;;;15.80;36.70;;;;;;5055489;28;20412;-64
2022/03/22 11:52:54;;;;;;;0.93;0.93;;;15.90;36.80;;;;;;5055700;28;20452;-65
2022/03/22 11:55:25;;;;;;;0.30;0.30;;;16.00;36.80;;;;;;5055804;28;20403;-64
2022/03/22 11:58:05;;;;;;;0.30;0.30;;;16.00;36.20;;;;;;5055648;28;20751;-63
2022/03/22 12:00:56;;;;;;;0.50;0.50;;;16.30;36.80;;;;;;5055077;28;20434;-63
2022/03/22 12:03:29;;;;;;;0.30;0.30;;;16.30;36.50;;;;;;5055409;28;20493;-65
2022/03/22 12:05:55;;;;;;;0.70;0.70;;;16.50;36.60;;;;;;5055384;28;20424;-65
2022/03/22 12:08:23;;;;;;;0.90;0.90;;;16.50;36.00;;;;;;5055258;28;20408;-63
2022/03/22 12:10:51;;;;;;;1.83;1.83;;;16.60;36.10;;;;;;5053712;28;20463;-64
2022/03/22 12:13:18;;;;;;;0.77;0.77;;;16.20;36.40;;;;;;5055199;28;20411;-64
2022/03/22 12:15:43;;;;;;;0.40;0.40;;;15.80;36.40;;;;;;5055199;28;20412;-65
2022/03/22 12:18:12;;;;;;;0.40;0.40;;;15.90;37.00;;;;;;5053837;28;20527;-64
2022/03/22 12:20:39;;;;;;;0.70;0.70;;;16.00;36.50;;;;;;5054840;28;20249;-63
2022/03/22 12:23:06;;;;;;;0.50;0.50;;;15.60;36.50;;;;;;5054931;28;20469;-63
2022/03/22 12:25:34;;;;;;;1.00;1.00;;;15.70;37.00;;;;;;5054959;28;20974;-64
2022/03/22 12:28:07;;;;;;;0.63;0.63;;;15.70;37.40;;;;;;5054866;28;20503;-65
2022/03/22 12:30:35;;;;;;;0.40;0.40;;;16.10;37.90;;;;;;5054703;28;20408;-64
2022/03/22 12:33:06;;;;;;;0.83;0.83;;;16.50;36.30;;;;;;5054966;28;20735;-63
2022/03/22 12:35:31;;;;;;;0.47;0.47;;;16.20;36.60;;;;;;5054731;28;20419;-63
2022/03/22 12:37:57;;;;;;;0.40;0.40;;;15.80;36.40;;;;;;5054907;28;20411;-64
2022/03/22 12:40:24;;;;;;;0.30;0.30;;;15.60;37.00;;;;;;5054588;28;20167;-64
2022/03/22 12:42:51;;;;;;;0.50;0.50;;;15.50;37.90;;;;;;5055269;28;20436;-64
2022/03/22 12:45:19;;;;;;;0.50;0.50;;;16.00;36.90;;;;;;5054493;28;20419;-64
2022/03/22 12:47:45;;;;;;;0.40;0.40;;;16.20;36.80;;;;;;5054417;28;20840;-64
2022/03/22 12:50:13;;;;;;;0.40;0.40;;;16.40;36.40;;;;;;5054132;28;20441;-64
2022/03/22 12:52:40;;;;;;;0.30;0.30;;;16.70;36.10;;;;;;5054440;28;20870;-64
2022/03/22 12:55:08;;;;;;;0.70;0.70;;;16.10;36.60;;;;;;5054586;28;20847;-63
2022/03/22 12:57:35;;;;;;;0.40;0.40;;;16.00;36.90;;;;;;5054129;28;20465;-64
2022/03/22 13:00:03;;;;;;;0.67;0.67;;;16.10;37.00;;;;;;5053961;28;20471;-64
2022/03/22 13:02:29;;;;;;;0.30;0.30;;;16.20;37.50;;;;;;5054412;28;20401;-64
2022/03/22 13:04:55;;;;;;;0.30;0.30;;;15.90;36.50;;;;;;5054417;28;20743;-64
2022/03/22 13:07:25;;;;;;;1.17;1.07;;;15.70;36.90;;;;;;5054079;28;20243;-64
2022/03/22 13:12:37;;;;;;;3.03;1.57;;;16.60;36.90;;;;;;5054073;28;20459;-63
2022/03/22 13:15:20;;;;;;;1.13;1.13;;;16.60;36.30;;;;;;5054133;28;20770;-64
2022/03/22 13:17:48;;;;;;;0.30;0.30;;;16.30;36.30;;;;;;5054025;28;20691;-63
2022/03/22 13:20:22;;;;;;;0.70;0.70;;;16.20;36.80;;;;;;5053875;28;20415;-63
2022/03/22 13:23:09;;;;;;;0.30;0.30;;;15.50;37.30;;;;;;5053860;28;20395;-64
2022/03/22 13:25:37;;;;;;;0.40;0.40;;;15.50;37.90;;;;;;5053930;28;20446;-63
2022/03/22 13:28:08;;;;;;;0.60;0.60;;;15.50;37.70;;;;;;5053660;28;20463;-63
2022/03/22 13:30:36;;;;;;;0.40;0.40;;;15.60;37.70;;;;;;5053533;28;20405;-64